Time;durP1;ratioP1;P1;durP2;ratioP2;P2;SDS_P1;SDS_P2;PMS_P1;PMS_P2;Temp;Humidity;BMP_temperature;BMP_pressure;BME280_temperature;BME280_humidity;BME280_pressure;Samples;Min_cycle;Max_cycle;Signal;HPM_P1;HPM_P2
2022/03/22 00:01:53;;;;;;;;;;;;;;;;;;5050643;28;1910;-68
2022/03/22 00:04:19;;;;;;;;;;;;;;;;;;5050813;28;1050;-68
2022/03/22 00:06:45;;;;;;;;;;;;;;;;;;5049988;28;1305;-68
2022/03/22 00:09:11;;;;;;;;;;;;;;;;;;5050472;28;1014;-69
2022/03/22 00:11:37;;;;;;;;;;;;;;;;;;5050425;28;1054;-68
2022/03/22 00:14:08;;;;;;;;;;;;;;;;;;5050606;28;936;-68
2022/03/22 00:16:34;;;;;;;;;;;;;;;;;;5052762;28;1569;-68
2022/03/22 00:19:01;;;;;;;;;;;;;;;;;;5050602;28;804;-68
2022/03/22 00:21:27;;;;;;;;;;;;;;;;;;5050294;28;1963;-69
2022/03/22 00:23:54;;;;;;;;;;;;;;;;;;5049390;28;1069;-68
2022/03/22 00:26:20;;;;;;;;;;;;;;;;;;5049242;28;1337;-68
2022/03/22 00:28:47;;;;;;;;;;;;;;;;;;5050315;28;959;-68
2022/03/22 00:31:15;;;;;;;;;;;;;;;;;;5050141;28;1101;-68
2022/03/22 00:33:41;;;;;;;;;;;;;;;;;;5050363;28;959;-68
2022/03/22 00:36:08;;;;;;;;;;;;;;;;;;5050130;28;1329;-67
2022/03/22 00:38:34;;;;;;;;;;;;;;;;;;5051147;28;1124;-68
2022/03/22 00:41:00;;;;;;;;;;;;;;;;;;5054132;28;1975;-69
2022/03/22 00:43:26;;;;;;;;;;;;;;;;;;5054579;28;1121;-67
2022/03/22 00:45:52;;;;;;;;;;;;;;;;;;5053754;28;1415;-67
2022/03/22 00:48:20;;;;;;;;;;;;;;;;;;5053679;28;1145;-67
2022/03/22 00:50:47;;;;;;;;;;;;;;;;;;5053868;28;1069;-68
2022/03/22 00:53:17;;;;;;;;;;;;;;;;;;5053829;28;761;-68
2022/03/22 00:55:43;;;;;;;;;;;;;;;;;;5035575;28;1412;-68
2022/03/22 00:58:10;;;;;;;;;;;;;;;;;;5053397;28;1128;-68
2022/03/22 01:00:36;;;;;;;;;;;;;;;;;;5053624;28;860;-68
2022/03/22 01:03:04;;;;;;;;;;;;;;;;;;5053688;28;1977;-68
2022/03/22 01:05:32;;;;;;;;;;;;;;;;;;5053467;28;1312;-68
2022/03/22 01:07:59;;;;;;;;;;;;;;;;;;5053385;28;919;-68
2022/03/22 01:10:26;;;;;;;;;;;;;;;;;;5053414;28;800;-68
2022/03/22 01:12:52;;;;;;;;;;;;;;;;;;5053541;28;812;-68
2022/03/22 01:15:19;;;;;;;;;;;;;;;;;;5053024;28;1345;-68
2022/03/22 01:17:46;;;;;;;;;;;;;;;;;;5053238;28;1090;-68
2022/03/22 01:20:12;;;;;;;;;;;;;;;;;;5053328;28;1073;-68
2022/03/22 01:22:40;;;;;;;;;;;;;;;;;;5053532;28;1918;-68
2022/03/22 01:25:08;;;;;;;;;;;;;;;;;;5053347;28;1085;-67
2022/03/22 01:27:34;;;;;;;;;;;;;;;;;;5053008;28;784;-68
2022/03/22 01:30:01;;;;;;;;;;;;;;;;;;5053386;28;847;-68
2022/03/22 01:32:27;;;;;;;;;;;;;;;;;;5052756;28;1118;-68
2022/03/22 01:34:54;;;;;;;;;;;;;;;;;;5053171;28;1077;-68
2022/03/22 01:37:20;;;;;;;;;;;;;;;;;;5052542;28;1371;-68
2022/03/22 01:39:48;;;;;;;;;;;;;;;;;;5052863;28;808;-68
2022/03/22 01:42:14;;;;;;;;;;;;;;;;;;5052681;28;1985;-67
2022/03/22 01:44:40;;;;;;;;;;;;;;;;;;5053010;28;1089;-68
2022/03/22 01:47:06;;;;;;;;;;;;;;;;;;5052376;28;1271;-68
2022/03/22 01:49:33;;;;;;;;;;;;;;;;;;5034437;28;1176;-68
2022/03/22 01:51:59;;;;;;;;;;;;;;;;;;5052326;28;1078;-69
2022/03/22 01:54:25;;;;;;;;;;;;;;;;;;5052421;28;792;-69
2022/03/22 01:56:53;;;;;;;;;;;;;;;;;;5034372;28;1574;-69
2022/03/22 01:59:19;;;;;;;;;;;;;;;;;;5052328;28;1041;-69
2022/03/22 02:07:13;;;;;;;;;;;;;;;;;;5051845;28;1428;-68
2022/03/22 02:09:39;;;;;;;;;;;;;;;;;;5054912;28;1542;-69
2022/03/22 02:12:07;;;;;;;;;;;;;;;;;;5052356;28;1081;-69
2022/03/22 02:14:34;;;;;;;;;;;;;;;;;;5052336;28;963;-68
2022/03/22 02:17:05;;;;;;;;;;;;;;;;;;5051861;28;1417;-68
2022/03/22 02:19:32;;;;;;;;;;;;;;;;;;5052232;28;959;-69
2022/03/22 02:21:59;;;;;;;;;;;;;;;;;;5052058;28;1922;-69
2022/03/22 02:24:27;;;;;;;;;;;;;;;;;;5048063;28;1983;-68
2022/03/22 02:26:55;;;;;;;;;;;;;;;;;;5071580;28;1413;-68
2022/03/22 02:29:21;;;;;;;;;;;;;;;;;;5071960;28;1117;-68
2022/03/22 02:31:47;;;;;;;;;;;;;;;;;;5071777;28;888;-68
2022/03/22 02:34:13;;;;;;;;;;;;;;;;;;5072040;28;1117;-68
2022/03/22 02:36:40;;;;;;;;;;;;;;;;;;5071474;28;1364;-68
2022/03/22 02:39:06;;;;;;;;;;;;;;;;;;5072043;28;934;-68
2022/03/22 02:41:33;;;;;;;;;;;;;;;;;;5071637;28;1945;-68
2022/03/22 02:43:59;;;;;;;;;;;;;;;;;;5071799;28;788;-68
2022/03/22 02:46:26;;;;;;;;;;;;;;;;;;5071206;28;1298;-68
2022/03/22 02:48:52;;;;;;;;;;;;;;;;;;5071651;28;1297;-68
2022/03/22 02:51:18;;;;;;;;;;;;;;;;;;5071362;28;880;-68
2022/03/22 02:53:44;;;;;;;;;;;;;;;;;;5071594;28;1125;-68
2022/03/22 02:56:11;;;;;;;;;;;;;;;;;;5071168;28;1271;-67
2022/03/22 02:58:39;;;;;;;;;;;;;;;;;;5071485;28;1108;-68
2022/03/22 03:01:05;;;;;;;;;;;;;;;;;;5053576;28;1131;-68
2022/03/22 03:03:33;;;;;;;;;;;;;;;;;;5052491;28;1918;-68
2022/03/22 03:05:59;;;;;;;;;;;;;;;;;;5070791;28;1337;-68
2022/03/22 03:08:26;;;;;;;;;;;;;;;;;;5052950;28;1336;-68
2022/03/22 03:10:52;;;;;;;;;;;;;;;;;;5071277;28;1097;-68
2022/03/22 03:13:19;;;;;;;;;;;;;;;;;;5071170;28;1061;-68
2022/03/22 03:15:46;;;;;;;;;;;;;;;;;;5071167;28;1279;-68
2022/03/22 03:18:13;;;;;;;;;;;;;;;;;;5071007;28;867;-68
2022/03/22 03:20:39;;;;;;;;;;;;;;;;;;5071105;28;840;-68
2022/03/22 03:23:05;;;;;;;;;;;;;;;;;;5071816;28;1926;-68
2022/03/22 03:25:31;;;;;;;;;;;;;;;;;;5072245;28;1275;-68
2022/03/22 03:27:58;;;;;;;;;;;;;;;;;;5070900;28;1148;-68
2022/03/22 03:30:24;;;;;;;;;;;;;;;;;;5070920;28;911;-68
2022/03/22 03:32:51;;;;;;;;;;;;;;;;;;5071023;28;837;-68
2022/03/22 03:35:18;;;;;;;;;;;;;;;;;;5070720;28;1288;-68
2022/03/22 03:37:45;;;;;;;;;;;;;;;;;;5070688;28;962;-67
2022/03/22 03:40:12;;;;;;;;;;;;;;;;;;5070652;28;1123;-68
2022/03/22 03:42:42;;;;;;;;;;;;;;;;;;5070543;28;1917;-68
2022/03/22 03:47:55;;;;;;;;;;;;;;;;;;5070536;28;970;-68
2022/03/22 03:50:21;;;;;;;;;;;;;;;;;;5070757;28;942;-68
2022/03/22 03:52:48;;;;;;;;;;;;;;;;;;5070765;28;1065;-68
2022/03/22 03:55:14;;;;;;;;;;;;;;;;;;5070657;28;1272;-68
2022/03/22 03:57:40;;;;;;;;;;;;;;;;;;5051994;28;836;-68
2022/03/22 04:00:08;;;;;;;;;;;;;;;;;;5080113;22;4112;-69
2022/03/22 04:02:41;;;;;;;;;;;;;;;;;;5069503;28;1987;-70
2022/03/22 04:05:10;;;;;;;;;;;;;;;;;;5061298;28;1213;-69
2022/03/22 04:07:36;;;;;;;;;;;;;;;;;;5069705;28;1120;-69
2022/03/22 04:10:02;;;;;;;;;;;;;;;;;;5070054;28;1360;-69
2022/03/22 04:12:28;;;;;;;;;;;;;;;;;;5070052;28;1128;-69
2022/03/22 04:14:55;;;;;;;;;;;;;;;;;;5073100;28;978;-70
2022/03/22 04:17:21;;;;;;;;;;;;;;;;;;5073791;28;1128;-69
2022/03/22 04:19:48;;;;;;;;;;;;;;;;;;5067286;28;1464;-70
2022/03/22 04:22:16;;;;;;;;;;;;;;;;;;5053825;28;1914;-69
2022/03/22 04:24:42;;;;;;;;;;;;;;;;;;5053674;28;971;-69
2022/03/22 04:32:45;;;;;;;;;;;;;;;;;;5053607;28;860;-69
2022/03/22 04:35:11;;;;;;;;;;;;;;;;;;5054075;28;821;-69
2022/03/22 04:37:39;;;;;;;;;;;;;;;;;;5053680;28;976;-68
2022/03/22 04:40:07;;;;;;;;;;;;;;;;;;5053614;28;1316;-69
2022/03/22 04:42:34;;;;;;;;;;;;;;;;;;5053234;28;1977;-69
2022/03/22 04:45:01;;;;;;;;;;;;;;;;;;5053915;28;836;-67
2022/03/22 04:47:27;;;;;;;;;;;;;;;;;;5053390;28;938;-69
2022/03/22 04:49:53;;;;;;;;;;;;;;;;;;5053559;28;1321;-66
2022/03/22 04:57:49;;;;;;;;;;;;;;;;;;5053585;28;990;-69
2022/03/22 05:00:15;;;;;;;;;;;;;;;;;;5052948;28;1336;-70
2022/03/22 05:02:42;;;;;;;;;;;;;;;;;;5053245;28;1895;-69
2022/03/22 05:05:08;;;;;;;;;;;;;;;;;;5053285;28;947;-68
2022/03/22 05:07:34;;;;;;;;;;;;;;;;;;5053245;28;962;-69
2022/03/22 05:10:00;;;;;;;;;;;;;;;;;;5053162;28;1325;-69
2022/03/22 05:12:29;;;;;;;;;;;;;;;;;;5052882;28;780;-70
2022/03/22 05:14:55;;;;;;;;;;;;;;;;;;5053044;28;1073;-69
2022/03/22 05:17:23;;;;;;;;;;;;;;;;;;5052657;28;828;-69
2022/03/22 05:19:50;;;;;;;;;;;;;;;;;;5052647;28;1330;-69
2022/03/22 05:22:16;;;;;;;;;;;;;;;;;;5052850;28;1988;-69
2022/03/22 05:24:42;;;;;;;;;;;;;;;;;;5052470;28;1077;-70
2022/03/22 05:27:08;;;;;;;;;;;;;;;;;;5051948;28;1011;-69
2022/03/22 05:29:36;;;;;;;;;;;;;;;;;;5052444;28;1464;-69
2022/03/22 05:32:02;;;;;;;;;;;;;;;;;;5052637;28;1066;-67
2022/03/22 05:34:29;;;;;;;;;;;;;;;;;;5052545;28;848;-68
2022/03/22 05:36:56;;;;;;;;;;;;;;;;;;5051870;28;839;-67
2022/03/22 05:39:22;;;;;;;;;;;;;;;;;;5052340;28;1350;-67
2022/03/22 05:41:48;;;;;;;;;;;;;;;;;;5052128;28;1128;-68
2022/03/22 05:44:14;;;;;;;;;;;;;;;;;;5052454;28;1975;-68
2022/03/22 05:46:42;;;;;;;;;;;;;;;;;;5051956;28;1104;-67
2022/03/22 05:49:09;;;;;;;;;;;;;;;;;;5052175;28;1045;-68
2022/03/22 05:51:36;;;;;;;;;;;;;;;;;;5052030;28;1275;-68
2022/03/22 05:54:03;;;;;;;;;;;;;;;;;;5052993;28;1180;-67
2022/03/22 05:56:29;;;;;;;;;;;;;;;;;;5065662;28;1239;-68
2022/03/22 05:58:58;;;;;;;;;;;;;;;;;;5062800;28;1145;-69
2022/03/22 06:01:25;;;;;;;;;;;;;;;;;;5060312;28;1389;-70
2022/03/22 06:03:52;;;;;;;;;;;;;;;;;;5061960;28;2009;-70
2022/03/22 06:06:18;;;;;;;;;;;;;;;;;;5065080;28;1322;-67
2022/03/22 06:08:45;;;;;;;;;;;;;;;;;;5072111;28;1116;-68
2022/03/22 06:11:11;;;;;;;;;;;;;;;;;;5071743;28;1339;-68
2022/03/22 06:13:38;;;;;;;;;;;;;;;;;;5068695;28;1538;-68
2022/03/22 06:16:05;;;;;;;;;;;;;;;;;;5051910;28;860;-68
2022/03/22 06:18:31;;;;;;;;;;;;;;;;;;5051588;28;1105;-68
2022/03/22 06:20:58;;;;;;;;;;;;;;;;;;5034175;28;1345;-67
2022/03/22 06:23:25;;;;;;;;;;;;;;;;;;5051807;28;1918;-68
2022/03/22 06:25:51;;;;;;;;;;;;;;;;;;5051996;28;1118;-67
2022/03/22 06:28:18;;;;;;;;;;;;;;;;;;5051498;28;927;-68
2022/03/22 06:30:44;;;;;;;;;;;;;;;;;;5051168;28;1332;-68
2022/03/22 06:33:13;;;;;;;;;;;;;;;;;;5051497;28;1124;-70
2022/03/22 06:35:39;;;;;;;;;;;;;;;;;;5051370;28;1078;-70
2022/03/22 06:38:07;;;;;;;;;;;;;;;;;;5051138;28;1062;-68
2022/03/22 06:40:34;;;;;;;;;;;;;;;;;;5051526;28;1285;-68
2022/03/22 06:43:01;;;;;;;;;;;;;;;;;;5051217;28;1926;-67
2022/03/22 06:45:27;;;;;;;;;;;;;;;;;;5051182;28;1132;-67
2022/03/22 06:47:54;;;;;;;;;;;;;;;;;;5050680;28;781;-68
2022/03/22 06:50:20;;;;;;;;;;;;;;;;;;5051141;28;1298;-67
2022/03/22 06:52:46;;;;;;;;;;;;;;;;;;5051085;28;1078;-68
2022/03/22 06:55:16;;;;;;;;;;;;;;;;;;5051344;28;927;-69
2022/03/22 06:57:42;;;;;;;;;;;;;;;;;;5050849;28;1089;-68
2022/03/22 07:00:09;;;;;;;;;;;;;;;;;;5051043;28;1313;-68
2022/03/22 07:02:36;;;;;;;;;;;;;;;;;;5050907;28;1976;-68
2022/03/22 07:05:02;;;;;;;;;;;;;;;;;;5050957;28;1218;-68
2022/03/22 07:07:28;;;;;;;;;;;;;;;;;;5053542;28;1074;-67
2022/03/22 07:09:55;;;;;;;;;;;;;;;;;;5052684;28;1407;-68
2022/03/22 07:12:22;;;;;;;;;;;;;;;;;;5050927;28;950;-69
2022/03/22 07:14:48;;;;;;;;;;;;;;;;;;5053544;28;1193;-68
2022/03/22 07:17:15;;;;;;;;;;;;;;;;;;5070225;28;1128;-68
2022/03/22 07:19:41;;;;;;;;;;;;;;;;;;5070777;28;1420;-69
2022/03/22 07:22:07;;;;;;;;;;;;;;;;;;5069173;28;1076;-67
2022/03/22 07:24:34;;;;;;;;;;;;;;;;;;5061544;28;1981;-68
2022/03/22 07:27:00;;;;;;;;;;;;;;;;;;5061352;28;1132;-69
2022/03/22 07:29:28;;;;;;;;;;;;;;;;;;5054586;28;1317;-68
2022/03/22 07:31:56;;;;;;;;;;;;;;;;;;5050720;28;962;-69
2022/03/22 07:34:23;;;;;;;;;;;;;;;;;;5050718;28;1082;-67
2022/03/22 07:36:52;;;;;;;;;;;;;;;;;;5050354;28;1069;-69
2022/03/22 07:39:19;;;;;;;;;;;;;;;;;;5050139;28;816;-68
2022/03/22 07:41:46;;;;;;;;;;;;;;;;;;5050177;28;1398;-68
2022/03/22 07:44:12;;;;;;;;;;;;;;;;;;5050351;28;1918;-68
2022/03/22 07:46:40;;;;;;;;;;;;;;;;;;5050022;28;1066;-67
2022/03/22 07:54:34;;;;;;;;;;;;;;;;;;5050222;28;994;-67
2022/03/22 07:57:00;;;;;;;;;;;;;;;;;;5049687;28;879;-68
2022/03/22 07:59:27;;;;;;;;;;;;;;;;;;5050001;28;1380;-68
2022/03/22 08:01:55;;;;;;;;;;;;;;;;;;5050197;28;1089;-67
2022/03/22 08:04:21;;;;;;;;;;;;;;;;;;5050023;28;1911;-68
2022/03/22 08:06:47;;;;;;;;;;;;;;;;;;5049812;28;877;-68
2022/03/22 08:09:14;;;;;;;;;;;;;;;;;;5055463;28;2160;-69
2022/03/22 08:11:40;;;;;;;;;;;;;;;;;;5067029;28;1400;-68
2022/03/22 08:14:06;;;;;;;;;;;;;;;;;;5069847;28;1126;-67
2022/03/22 08:16:32;;;;;;;;;;;;;;;;;;5069600;28;1136;-67
2022/03/22 08:19:00;;;;;;;;;;;;;;;;;;5052312;28;1228;-67
2022/03/22 08:21:26;;;;;;;;;;;;;;;;;;5067561;28;1669;-68
2022/03/22 08:23:52;;;;;;;;;;;;;;;;;;5053260;28;2447;-66
2022/03/22 08:26:18;;;;;;;;;;;;;;;;;;5069263;28;1015;-68
2022/03/22 08:28:45;;;;;;;;;;;;;;;;;;5061429;28;1228;-67
2022/03/22 08:31:11;;;;;;;;;;;;;;;;;;5070208;28;1404;-68
2022/03/22 08:33:38;;;;;;;;;;;;;;;;;;5069823;28;943;-68
2022/03/22 08:36:05;;;;;;;;;;;;;;;;;;5069825;28;1074;-70
2022/03/22 08:38:32;;;;;;;;;;;;;;;;;;5069696;28;1136;-68
2022/03/22 08:40:58;;;;;;;;;;;;;;;;;;5069861;28;1590;-68
2022/03/22 08:43:25;;;;;;;;;;;;;;;;;;5069431;28;1969;-68
2022/03/22 08:45:51;;;;;;;;;;;;;;;;;;5069616;28;844;-68
2022/03/22 08:48:17;;;;;;;;;;;;;;;;;;5069377;28;1089;-68
2022/03/22 08:50:44;;;;;;;;;;;;;;;;;;5069645;28;1314;-68
2022/03/22 08:53:12;;;;;;;;;;;;;;;;;;5069578;28;1009;-68
2022/03/22 08:55:38;;;;;;;;;;;;;;;;;;5070082;28;1061;-68
2022/03/22 08:58:06;;;;;;;;;;;;;;;;;;5069358;28;945;-68
2022/03/22 09:00:32;;;;;;;;;;;;;;;;;;5069966;28;1345;-68
2022/03/22 09:02:58;;;;;;;;;;;;;;;;;;5054861;28;1344;-68
2022/03/22 09:08:08;;;;;;;;;;;;;;;;;;5072917;28;1015;-69
2022/03/22 09:10:36;;;;;;;;;;;;;;;;;;5072964;28;1312;-68
2022/03/22 09:13:02;;;;;;;;;;;;;;;;;;5073162;28;1060;-69
2022/03/22 09:15:29;;;;;;;;;;;;;;;;;;5072958;28;1136;-68
2022/03/22 09:17:55;;;;;;;;;;;;;;;;;;5073036;28;1101;-69
2022/03/22 09:20:22;;;;;;;;;;;;;;;;;;5072668;28;1395;-68
2022/03/22 09:22:49;;;;;;;;;;;;;;;;;;5073078;28;758;-68
2022/03/22 09:25:16;;;;;;;;;;;;;;;;;;5072679;28;1973;-69
2022/03/22 09:27:44;;;;;;;;;;;;;;;;;;5072648;28;792;-68
2022/03/22 09:30:11;;;;;;;;;;;;;;;;;;5072616;28;1315;-69
2022/03/22 09:32:37;;;;;;;;;;;;;;;;;;5072641;28;1121;-68
2022/03/22 09:35:06;;;;;;;;;;;;;;;;;;5072662;28;1114;-68
2022/03/22 09:37:32;;;;;;;;;;;;;;;;;;5072056;28;1140;-68
2022/03/22 09:39:58;;;;;;;;;;;;;;;;;;5072508;28;1381;-69
2022/03/22 09:42:27;;;;;;;;;;;;;;;;;;5072556;28;788;-69
2022/03/22 09:44:54;;;;;;;;;;;;;;;;;;5072505;28;1965;-69
2022/03/22 09:47:20;;;;;;;;;;;;;;;;;;5072137;28;1128;-68
2022/03/22 09:49:47;;;;;;;;;;;;;;;;;;5072361;28;1308;-69
2022/03/22 09:52:14;;;;;;;;;;;;;;;;;;5054295;28;824;-70
2022/03/22 09:54:41;;;;;;;;;;;;;;;;;;5072161;28;915;-68
2022/03/22 09:57:07;;;;;;;;;;;;;;;;;;5072165;28;1004;-68
2022/03/22 09:59:33;;;;;;;;;;;;;;;;;;5072208;28;1473;-68
2022/03/22 10:02:01;;;;;;;;;;;;;;;;;;5073477;28;895;-67
2022/03/22 10:04:35;;;;;;;;;;;;;;;;;;5071649;28;1975;-68
2022/03/22 10:07:03;;;;;;;;;;;;;;;;;;5071750;28;1081;-67
2022/03/22 10:09:30;;;;;;;;;;;;;;;;;;5071856;28;1316;-67
2022/03/22 10:11:57;;;;;;;;;;;;;;;;;;5071505;28;796;-68
2022/03/22 10:14:32;;;;;;;;;;;;;;;;;;5071696;28;1120;-67
2022/03/22 10:16:58;;;;;;;;;;;;;;;;;;5071883;28;950;-67
2022/03/22 10:19:28;;;;;;;;;;;;;;;;;;5071655;28;1319;-67
2022/03/22 10:21:55;;;;;;;;;;;;;;;;;;5071687;28;958;-67
2022/03/22 10:24:21;;;;;;;;;;;;;;;;;;5053670;28;1918;-67
2022/03/22 10:26:48;;;;;;;;;;;;;;;;;;5071441;28;1109;-67
2022/03/22 10:29:14;;;;;;;;;;;;;;;;;;5071219;28;949;-67
2022/03/22 10:31:41;;;;;;;;;;;;;;;;;;5057193;28;1613;-67
2022/03/22 10:34:07;;;;;;;;;;;;;;;;;;5051453;28;1039;-67
2022/03/22 10:36:36;;;;;;;;;;;;;;;;;;5052709;28;1176;-67
2022/03/22 10:39:03;;;;;;;;;;;;;;;;;;5071116;28;1249;-67
2022/03/22 10:41:30;;;;;;;;;;;;;;;;;;5071388;28;1314;-67
2022/03/22 10:44:03;;;;;;;;;;;;;;;;;;5071339;28;1914;-67
2022/03/22 10:46:30;;;;;;;;;;;;;;;;;;5070851;28;1092;-67
2022/03/22 10:49:01;;;;;;;;;;;;;;;;;;5071334;28;838;-67
2022/03/22 10:51:31;;;;;;;;;;;;;;;;;;5071265;28;1392;-67
2022/03/22 10:53:59;;;;;;;;;;;;;;;;;;5071200;28;898;-67
2022/03/22 10:56:25;;;;;;;;;;;;;;;;;;5070615;28;740;-67
2022/03/22 10:58:52;;;;;;;;;;;;;;;;;;5071022;28;1068;-67
2022/03/22 11:01:19;;;;;;;;;;;;;;;;;;5070766;28;1433;-67
2022/03/22 11:03:45;;;;;;;;;;;;;;;;;;5070978;28;1131;-67
2022/03/22 11:06:12;;;;;;;;;;;;;;;;;;5070436;28;1914;-67
2022/03/22 11:08:41;;;;;;;;;;;;;;;;;;5070637;28;1081;-67
2022/03/22 11:11:08;;;;;;;;;;;;;;;;;;5070315;28;1340;-67
2022/03/22 11:13:34;;;;;;;;;;;;;;;;;;5070441;28;946;-67
2022/03/22 11:16:01;;;;;;;;;;;;;;;;;;5052524;28;1549;-67
2022/03/22 11:18:27;;;;;;;;;;;;;;;;;;5051991;28;1160;-67
2022/03/22 11:20:55;;;;;;;;;;;;;;;;;;5070250;28;1337;-67
2022/03/22 11:23:22;;;;;;;;;;;;;;;;;;5069652;28;1147;-67
2022/03/22 11:25:49;;;;;;;;;;;;;;;;;;5070271;28;1964;-67
2022/03/22 11:28:18;;;;;;;;;;;;;;;;;;5070062;28;1089;-66
2022/03/22 11:30:45;;;;;;;;;;;;;;;;;;5070141;28;1324;-66
2022/03/22 11:35:57;;;;;;;;;;;;;;;;;;5052055;28;1265;-67
2022/03/22 11:38:35;;;;;;;;;;;;;;;;;;5050052;28;1265;-67
2022/03/22 11:43:48;;;;;;;;;;;;;;;;;;5050381;28;1012;-67
2022/03/22 11:46:14;;;;;;;;;;;;;;;;;;5049700;28;1972;-67
2022/03/22 11:48:40;;;;;;;;;;;;;;;;;;5050169;28;1566;-67
2022/03/22 11:51:07;;;;;;;;;;;;;;;;;;5050797;28;1309;-67
2022/03/22 11:53:40;;;;;;;;;;;;;;;;;;5050473;28;1110;-67
2022/03/22 11:56:07;;;;;;;;;;;;;;;;;;5050104;28;1098;-67
2022/03/22 11:58:33;;;;;;;;;;;;;;;;;;5050666;28;796;-67
2022/03/22 12:01:01;;;;;;;;;;;;;;;;;;5050222;28;1355;-67
2022/03/22 12:03:30;;;;;;;;;;;;;;;;;;5049916;28;1121;-67
2022/03/22 12:05:58;;;;;;;;;;;;;;;;;;5060537;28;1910;-67
2022/03/22 12:08:26;;;;;;;;;;;;;;;;;;5056364;28;1150;-66
2022/03/22 12:10:54;;;;;;;;;;;;;;;;;;5058373;28;1406;-67
2022/03/22 12:13:20;;;;;;;;;;;;;;;;;;5058612;28;1239;-67
2022/03/22 12:15:47;;;;;;;;;;;;;;;;;;5060250;28;1259;-67
2022/03/22 12:18:14;;;;;;;;;;;;;;;;;;5059481;28;1215;-67
2022/03/22 12:20:43;;;;;;;;;;;;;;;;;;5060153;28;1389;-67
2022/03/22 12:23:09;;;;;;;;;;;;;;;;;;5058075;28;1485;-67
2022/03/22 12:25:36;;;;;;;;;;;;;;;;;;5059072;28;1914;-67
2022/03/22 12:28:03;;;;;;;;;;;;;;;;;;5059517;28;1260;-67
2022/03/22 12:30:30;;;;;;;;;;;;;;;;;;5058620;28;1490;-67
2022/03/22 12:32:57;;;;;;;;;;;;;;;;;;5060518;28;1330;-67
2022/03/22 12:35:25;;;;;;;;;;;;;;;;;;5056955;28;1196;-67
2022/03/22 12:37:52;;;;;;;;;;;;;;;;;;5054107;28;1085;-67
2022/03/22 12:40:19;;;;;;;;;;;;;;;;;;5059745;28;1353;-67
2022/03/22 12:42:45;;;;;;;;;;;;;;;;;;5061496;28;1313;-67
2022/03/22 12:45:12;;;;;;;;;;;;;;;;;;5063306;28;1971;-67
2022/03/22 12:47:38;;;;;;;;;;;;;;;;;;5053259;28;1026;-67
2022/03/22 12:50:06;;;;;;;;;;;;;;;;;;5053477;28;1421;-67
2022/03/22 12:52:33;;;;;;;;;;;;;;;;;;5053746;28;864;-67
2022/03/22 12:54:59;;;;;;;;;;;;;;;;;;5053436;28;1002;-67
2022/03/22 12:57:25;;;;;;;;;;;;;;;;;;5067953;28;1184;-68
2022/03/22 12:59:52;;;;;;;;;;;;;;;;;;5073305;28;1368;-67
2022/03/22 13:02:18;;;;;;;;;;;;;;;;;;5073487;28;930;-67
2022/03/22 13:04:47;;;;;;;;;;;;;;;;;;5073390;28;1918;-67
2022/03/22 13:07:14;;;;;;;;;;;;;;;;;;5072823;28;844;-67
2022/03/22 13:12:25;;;;;;;;;;;;;;;;;;5072837;28;891;-67
2022/03/22 13:15:04;;;;;;;;;;;;;;;;;;5072979;28;1132;-67
2022/03/22 13:17:30;;;;;;;;;;;;;;;;;;5072778;28;895;-67
2022/03/22 13:19:57;;;;;;;;;;;;;;;;;;5073236;28;1473;-68
2022/03/22 13:22:25;;;;;;;;;;;;;;;;;;5072983;28;886;-68
2022/03/22 13:25:03;;;;;;;;;;;;;;;;;;5072798;28;1964;-67
2022/03/22 13:27:29;;;;;;;;;;;;;;;;;;5072433;28;1073;-67
2022/03/22 13:29:55;;;;;;;;;;;;;;;;;;5072847;28;1413;-67
2022/03/22 13:32:27;;;;;;;;;;;;;;;;;;5072597;28;1042;-68
2022/03/22 13:34:58;;;;;;;;;;;;;;;;;;5072359;28;1100;-67
2022/03/22 13:37:25;;;;;;;;;;;;;;;;;;5072056;28;1088;-67
2022/03/22 13:39:52;;;;;;;;;;;;;;;;;;5072339;28;1373;-67
2022/03/22 13:42:20;;;;;;;;;;;;;;;;;;5071010;28;1161;-67
2022/03/22 13:44:47;;;;;;;;;;;;;;;;;;5072555;28;1981;-67
2022/03/22 13:47:25;;;;;;;;;;;;;;;;;;5071376;28;990;-67
2022/03/22 13:49:51;;;;;;;;;;;;;;;;;;5072286;28;1312;-68
2022/03/22 13:52:24;;;;;;;;;;;;;;;;;;5072043;28;1053;-67
2022/03/22 13:54:53;;;;;;;;;;;;;;;;;;5071989;28;1073;-67
2022/03/22 13:57:21;;;;;;;;;;;;;;;;;;5071933;28;1104;-67
2022/03/22 13:59:48;;;;;;;;;;;;;;;;;;5071951;28;1344;-67
2022/03/22 14:02:15;;;;;;;;;;;;;;;;;;5071796;28;1104;-67
2022/03/22 14:04:41;;;;;;;;;;;;;;;;;;5054083;28;813;-67
2022/03/22 14:07:07;;;;;;;;;;;;;;;;;;5071329;28;1918;-67
2022/03/22 14:09:33;;;;;;;;;;;;;;;;;;5071820;28;1317;-67
2022/03/22 14:11:59;;;;;;;;;;;;;;;;;;5071781;28;1064;-67
2022/03/22 14:14:27;;;;;;;;;;;;;;;;;;5071933;28;1117;-67
2022/03/22 14:16:53;;;;;;;;;;;;;;;;;;5070979;28;1248;-68
2022/03/22 14:19:20;;;;;;;;;;;;;;;;;;5072134;28;963;-68
2022/03/22 14:21:47;;;;;;;;;;;;;;;;;;5068913;28;1491;-67
2022/03/22 14:24:13;;;;;;;;;;;;;;;;;;5071145;28;1175;-67
2022/03/22 14:26:39;;;;;;;;;;;;;;;;;;5057935;28;1977;-67
2022/03/22 14:29:05;;;;;;;;;;;;;;;;;;5051485;28;1073;-66
2022/03/22 14:31:33;;;;;;;;;;;;;;;;;;5051725;28;1290;-68
2022/03/22 14:33:59;;;;;;;;;;;;;;;;;;5051482;28;824;-68
2022/03/22 14:36:24;;;;;;;;;;;;;;;;;;5051118;28;1969;-68
2022/03/22 14:38:50;;;;;;;;;;;;;;;;;;5051680;28;1113;-68
2022/03/22 14:41:26;;;;;;;;;;;;;;;;;;5051589;28;1316;-68
2022/03/22 14:43:53;;;;;;;;;;;;;;;;;;5051302;28;1116;-68
2022/03/22 14:46:19;;;;;;;;;;;;;;;;;;5050730;28;1069;-67
2022/03/22 14:48:49;;;;;;;;;;;;;;;;;;5050593;28;1065;-68
2022/03/22 14:51:15;;;;;;;;;;;;;;;;;;5051082;28;1309;-67
2022/03/22 14:59:09;;;;;;;;;;;;;;;;;;5070110;28;1026;-68
2022/03/22 15:01:36;;;;;;;;;;;;;;;;;;5070473;28;1359;-68
2022/03/22 15:04:04;;;;;;;;;;;;;;;;;;5070649;28;734;-68
2022/03/22 15:06:31;;;;;;;;;;;;;;;;;;5069950;28;962;-68
2022/03/22 15:08:57;;;;;;;;;;;;;;;;;;5070402;28;915;-69
2022/03/22 15:11:24;;;;;;;;;;;;;;;;;;5070178;28;1312;-68
2022/03/22 15:13:51;;;;;;;;;;;;;;;;;;5070327;28;1081;-67
2022/03/22 15:16:17;;;;;;;;;;;;;;;;;;5070361;28;1914;-68
2022/03/22 15:18:44;;;;;;;;;;;;;;;;;;5070196;28;837;-68
2022/03/22 15:21:11;;;;;;;;;;;;;;;;;;5070394;28;1316;-67
2022/03/22 15:23:38;;;;;;;;;;;;;;;;;;5070669;28;729;-68
2022/03/22 15:26:05;;;;;;;;;;;;;;;;;;5060582;28;1121;-67
2022/03/22 15:28:31;;;;;;;;;;;;;;;;;;5050478;28;1361;-68
2022/03/22 15:30:58;;;;;;;;;;;;;;;;;;5050124;28;1318;-68
2022/03/22 15:33:24;;;;;;;;;;;;;;;;;;5050478;28;1217;-68
2022/03/22 15:35:50;;;;;;;;;;;;;;;;;;5050134;28;1977;-68
2022/03/22 15:38:18;;;;;;;;;;;;;;;;;;5050199;28;788;-68
2022/03/22 15:40:44;;;;;;;;;;;;;;;;;;5050312;28;1401;-68
2022/03/22 15:43:12;;;;;;;;;;;;;;;;;;5050215;28;1081;-68
2022/03/22 15:45:38;;;;;;;;;;;;;;;;;;5051151;28;1085;-68
2022/03/22 15:48:04;;;;;;;;;;;;;;;;;;5050001;28;1132;-68
2022/03/22 15:50:31;;;;;;;;;;;;;;;;;;5050047;28;1266;-68
2022/03/22 15:52:58;;;;;;;;;;;;;;;;;;5050245;28;896;-68
2022/03/22 15:55:26;;;;;;;;;;;;;;;;;;5050182;28;1977;-67
2022/03/22 15:57:53;;;;;;;;;;;;;;;;;;5031697;28;1748;-68
2022/03/22 16:00:20;;;;;;;;;;;;;;;;;;5049795;28;1357;-68
2022/03/22 16:02:47;;;;;;;;;;;;;;;;;;5049752;28;853;-68
2022/03/22 16:05:13;;;;;;;;;;;;;;;;;;5049885;28;1061;-68
2022/03/22 16:07:39;;;;;;;;;;;;;;;;;;5054151;22;3483;-68
2022/03/22 16:10:06;;;;;;;;;;;;;;;;;;5041767;28;1127;-69
2022/03/22 16:12:34;;;;;;;;;;;;;;;;;;5030730;28;1174;-69
2022/03/22 16:15:02;;;;;;;;;;;;;;;;;;5054316;28;971;-68
2022/03/22 16:17:29;;;;;;;;;;;;;;;;;;5054060;28;1983;-69
2022/03/22 16:19:55;;;;;;;;;;;;;;;;;;5054175;28;1124;-69
2022/03/22 16:22:21;;;;;;;;;;;;;;;;;;5054518;28;1069;-69
2022/03/22 16:24:48;;;;;;;;;;;;;;;;;;5019399;28;1583;-70
2022/03/22 16:27:15;;;;;;;;;;;;;;;;;;5014452;28;1308;-70
2022/03/22 16:29:42;;;;;;;;;;;;;;;;;;5014365;28;1022;-69
2022/03/22 16:32:09;;;;;;;;;;;;;;;;;;5014587;28;1066;-69
2022/03/22 16:37:19;;;;;;;;;;;;;;;;;;5013955;28;1975;-70
2022/03/22 16:39:45;;;;;;;;;;;;;;;;;;5014494;28;876;-70
2022/03/22 16:42:12;;;;;;;;;;;;;;;;;;5014558;28;1141;-71
2022/03/22 16:44:41;;;;;;;;;;;;;;;;;;5014426;28;1082;-71
2022/03/22 16:47:10;;;;;;;;;;;;;;;;;;5014194;28;1383;-68
2022/03/22 16:49:37;;;;;;;;;;;;;;;;;;5032115;28;1164;-71
2022/03/22 16:52:03;;;;;;;;;;;;;;;;;;5034031;28;811;-71
2022/03/22 16:54:30;;;;;;;;;;;;;;;;;;5033031;28;723;-71
2022/03/22 16:56:56;;;;;;;;;;;;;;;;;;5033569;28;1973;-71
2022/03/22 16:59:22;;;;;;;;;;;;;;;;;;5034078;28;1062;-71
2022/03/22 17:01:49;;;;;;;;;;;;;;;;;;5033906;28;1065;-71
2022/03/22 17:04:16;;;;;;;;;;;;;;;;;;5033725;28;1011;-71
2022/03/22 17:06:43;;;;;;;;;;;;;;;;;;5032982;28;1374;-70
2022/03/22 17:09:09;;;;;;;;;;;;;;;;;;5033566;28;943;-70
2022/03/22 17:11:36;;;;;;;;;;;;;;;;;;5015751;28;872;-70
2022/03/22 17:14:02;;;;;;;;;;;;;;;;;;5033686;28;1066;-70
2022/03/22 17:16:31;;;;;;;;;;;;;;;;;;5033366;28;1906;-71
2022/03/22 17:19:00;;;;;;;;;;;;;;;;;;5033485;28;1094;-71
2022/03/22 17:21:27;;;;;;;;;;;;;;;;;;5032798;28;852;-71
2022/03/22 17:23:54;;;;;;;;;;;;;;;;;;5033311;28;1125;-71
2022/03/22 17:26:21;;;;;;;;;;;;;;;;;;5032209;28;1421;-71
2022/03/22 17:28:48;;;;;;;;;;;;;;;;;;5032904;28;1141;-71
2022/03/22 17:31:15;;;;;;;;;;;;;;;;;;5033633;28;1117;-70
2022/03/22 17:33:41;;;;;;;;;;;;;;;;;;5033851;28;1058;-70
2022/03/22 17:36:08;;;;;;;;;;;;;;;;;;5032681;28;1915;-71
2022/03/22 17:38:36;;;;;;;;;;;;;;;;;;5032953;28;904;-70
2022/03/22 17:41:02;;;;;;;;;;;;;;;;;;5033046;28;1066;-71
2022/03/22 17:43:29;;;;;;;;;;;;;;;;;;5018277;28;1683;-71
2022/03/22 17:45:55;;;;;;;;;;;;;;;;;;5011090;28;1330;-71
2022/03/22 17:48:22;;;;;;;;;;;;;;;;;;5011044;28;1062;-70
2022/03/22 17:50:48;;;;;;;;;;;;;;;;;;4993532;28;1369;-71